LECV

Madri-Colmenar Airport

Spain
TAF LECV 200800Z 2009/2018 01017KT 9999 SCT020 BKN035 PROB30 TEMPO 2009/2011 4000 DZ BKN009 PROB40 TEMPO 2009/2017 36020G35KT
Issued Valid From Valid To
Jan-20 @ 08:00 UTC
(4 hours ago)
Jan-20 @ 09:00 UTC
(3 hours ago)
Jan-20 @ 18:00 UTC
(in 6 hours)
Jan-20 @ 09:00 to Jan-20 @ 18:00
TAF LECV 200800Z 2009/2018 01017KT 9999 SCT020 BKN035
Wind Visibility Clouds
10° at 17 knots 10,000+ meters
  • Scattered at 2,000' AGL
  • Broken at 3,500' AGL
Expired Click to View Jan-20 @ 09:00 to Jan-20 @ 11:00
PROB30 TEMPO 2009/2011 4000 DZ BKN009
Visibility Clouds Conditions
4,007 meters
  • Broken at 900' AGL
  • Drizzle
Temporary  (Probability 40%) Jan-20 @ 09:00 to Jan-20 @ 17:00
PROB40 TEMPO 2009/2017 36020G35KT
Wind
360° at 20 knots
 Gusting to 35 knots
TAF LECV 200800Z 2009/2018 01017KT 9999 SCT020 BKN035 PROB30 TEMPO 2009/2011 4000 DZ BKN009 PROB40 TEMPO 2009/2017 36020G35KT
Issued Jan-20 @ 08:00 UTC
(4 hours ago)
Valid From Jan-20 @ 09:00 UTC
(3 hours ago)
Valid To Jan-20 @ 18:00 UTC
(in 6 hours)
Jan-20 @ 09:00 - Jan-20 @ 18:00
Wind Visibility
10° at 17 knots 10,000+ meters
Clouds
  • Scattered at 2,000' AGL
  • Broken at 3,500' AGL
Jan-20 @ 09:00 - Jan-20 @ 11:00
Clouds
  • Broken at 900' AGL
Conditions
  • Drizzle
Probability 40% Temporary Jan-20 @ 09:00 - Jan-20 @ 17:00
Wind
360° at 20 knots
 Gusting to 35 knots